الصفحة الرئيسية
METAR-TAF:

METAR-TAF

مطار :

سنندج, إيران

دائرة عرض: 35-20N, خط طول: 047-00E, ارتفاع: 1373 متر

مراقبة الطقس الحالي

تاريخ ووقت الإصدار 47 دقيقة قبل الساعة 03:00UTC
ريح 4 عقدة من الشمال/الشمال الشرقي
درجة الحرارة 21°درجة مئوية
الرطوبة 33%
ضغط 1019 hPa
الرؤية 10 كم أو أكثر
الغيوم لا تقل 1500 م ولا وجود لمزنة ركامية السحاب الأسود

METAR: OICS 190300Z 02004KT CAVOK 21/04 Q1019 A3010

زمن: 08:17 (03:47 UTC)


TAF: مفقودة

أرصاد الطقس والتوقعات من أكثر من 4000 مطار (تقارير الطقس للمطار METAR والتنبؤ بالطقس بالمطارTAF).

المحطات المتاحة هي النقط الصفراء والحمراء على الخريطة.

حرك المؤشر فوق النقطة لمعرفة اسم المحطة.

ثم انقر لمعرفة أرصاد وتوقعات الطقس.

لتغيير الخارطة: اضغط على الأزرار الخضراء مع رمز الصليب الأسود للتكبير. على الزر الأخضر مع شرطة للتصغير، أو على الأسهم الخضراء للخرائط المجاورة.


METAR-TAF: